sensor_id;sensor_type;location;lat;lon;timestamp;P1;P2;P0
74333;PMS5003;62753;40.394;-80.022;2024-02-23T00:00:19;62;55;
74333;PMS5003;62753;40.394;-80.022;2024-02-23T00:02:45;65;55;
74333;PMS5003;62753;40.394;-80.022;2024-02-23T00:05:11;63;53;
74333;PMS5003;62753;40.394;-80.022;2024-02-23T00:07:36;66;61;
74333;PMS5003;62753;40.394;-80.022;2024-02-23T00:10:03;65;57;
74333;PMS5003;62753;40.394;-80.022;2024-02-23T00:12:27;63;55;
74333;PMS5003;62753;40.394;-80.022;2024-02-23T00:14:52;61;54;
74333;PMS5003;62753;40.394;-80.022;2024-02-23T00:17:18;68;54;
74333;PMS5003;62753;40.394;-80.022;2024-02-23T00:19:45;68;59;
74333;PMS5003;62753;40.394;-80.022;2024-02-23T00:22:09;72;64;
74333;PMS5003;62753;40.394;-80.022;2024-02-23T00:24:34;74;61;
74333;PMS5003;62753;40.394;-80.022;2024-02-23T00:27:00;63;54;
74333;PMS5003;62753;40.394;-80.022;2024-02-23T00:29:25;65;56;
74333;PMS5003;62753;40.394;-80.022;2024-02-23T00:31:50;67;56;
74333;PMS5003;62753;40.394;-80.022;2024-02-23T00:34:15;68;62;
74333;PMS5003;62753;40.394;-80.022;2024-02-23T00:36:41;67;59;
74333;PMS5003;62753;40.394;-80.022;2024-02-23T00:39:07;65;60;
74333;PMS5003;62753;40.394;-80.022;2024-02-23T00:41:35;69;61;
74333;PMS5003;62753;40.394;-80.022;2024-02-23T00:43:58;62;58;
74333;PMS5003;62753;40.394;-80.022;2024-02-23T00:46:24;72;63;
74333;PMS5003;62753;40.394;-80.022;2024-02-23T00:48:49;76;63;
74333;PMS5003;62753;40.394;-80.022;2024-02-23T00:51:14;75;68;
74333;PMS5003;62753;40.394;-80.022;2024-02-23T00:53:40;65;62;
74333;PMS5003;62753;40.394;-80.022;2024-02-23T00:56:07;76;67;
74333;PMS5003;62753;40.394;-80.022;2024-02-23T00:58:30;71;63;
74333;PMS5003;62753;40.394;-80.022;2024-02-23T01:00:56;79;70;
74333;PMS5003;62753;40.394;-80.022;2024-02-23T01:03:22;80;71;
74333;PMS5003;62753;40.394;-80.022;2024-02-23T01:05:48;75;62;
74333;PMS5003;62753;40.394;-80.022;2024-02-23T01:08:13;76;67;
74333;PMS5003;62753;40.394;-80.022;2024-02-23T01:10:39;75;68;
74333;PMS5003;62753;40.394;-80.022;2024-02-23T01:13:05;80;68;
74333;PMS5003;62753;40.394;-80.022;2024-02-23T01:15:30;76;69;
74333;PMS5003;62753;40.394;-80.022;2024-02-23T01:17:55;80;69;
74333;PMS5003;62753;40.394;-80.022;2024-02-23T01:20:21;81;72;
74333;PMS5003;62753;40.394;-80.022;2024-02-23T01:22:46;78;67;
74333;PMS5003;62753;40.394;-80.022;2024-02-23T01:25:12;72;68;
74333;PMS5003;62753;40.394;-80.022;2024-02-23T01:27:39;83;70;
74333;PMS5003;62753;40.394;-80.022;2024-02-23T01:30:03;87;77;
74333;PMS5003;62753;40.394;-80.022;2024-02-23T01:32:29;90;72;
74333;PMS5003;62753;40.394;-80.022;2024-02-23T01:34:54;89;73;
74333;PMS5003;62753;40.394;-80.022;2024-02-23T01:37:20;82;76;
74333;PMS5003;62753;40.394;-80.022;2024-02-23T01:39:43;89;73;
74333;PMS5003;62753;40.394;-80.022;2024-02-23T01:42:10;87;74;
74333;PMS5003;62753;40.394;-80.022;2024-02-23T01:44:35;87;78;
74333;PMS5003;62753;40.394;-80.022;2024-02-23T01:47:00;78;72;
74333;PMS5003;62753;40.394;-80.022;2024-02-23T01:49:26;71;65;
74333;PMS5003;62753;40.394;-80.022;2024-02-23T01:51:52;76;68;
74333;PMS5003;62753;40.394;-80.022;2024-02-23T01:54:16;73;69;
74333;PMS5003;62753;40.394;-80.022;2024-02-23T01:56:43;80;72;
74333;PMS5003;62753;40.394;-80.022;2024-02-23T01:59:07;80;71;
74333;PMS5003;62753;40.394;-80.022;2024-02-23T02:01:34;73;66;
74333;PMS5003;62753;40.394;-80.022;2024-02-23T02:03:58;83;73;
74333;PMS5003;62753;40.394;-80.022;2024-02-23T02:06:23;77;71;
74333;PMS5003;62753;40.394;-80.022;2024-02-23T02:08:49;71;62;
74333;PMS5003;62753;40.394;-80.022;2024-02-23T02:11:16;79;74;
74333;PMS5003;62753;40.394;-80.022;2024-02-23T02:13:41;70;62;
74333;PMS5003;62753;40.394;-80.022;2024-02-23T02:16:07;77;70;
74333;PMS5003;62753;40.394;-80.022;2024-02-23T02:18:32;76;65;
74333;PMS5003;62753;40.394;-80.022;2024-02-23T02:20:58;79;71;
74333;PMS5003;62753;40.394;-80.022;2024-02-23T02:23:25;75;68;
74333;PMS5003;62753;40.394;-80.022;2024-02-23T02:25:52;78;68;
74333;PMS5003;62753;40.394;-80.022;2024-02-23T02:28:15;76;64;
74333;PMS5003;62753;40.394;-80.022;2024-02-23T02:30:39;76;68;
74333;PMS5003;62753;40.394;-80.022;2024-02-23T02:33:05;73;67;
74333;PMS5003;62753;40.394;-80.022;2024-02-23T02:35:31;79;68;
74333;PMS5003;62753;40.394;-80.022;2024-02-23T02:37:56;82;70;
74333;PMS5003;62753;40.394;-80.022;2024-02-23T02:40:22;77;69;
74333;PMS5003;62753;40.394;-80.022;2024-02-23T02:42:47;78;71;
74333;PMS5003;62753;40.394;-80.022;2024-02-23T02:45:13;77;68;
74333;PMS5003;62753;40.394;-80.022;2024-02-23T02:47:39;70;66;
74333;PMS5003;62753;40.394;-80.022;2024-02-23T02:50:05;69;63;
74333;PMS5003;62753;40.394;-80.022;2024-02-23T02:52:30;82;69;
74333;PMS5003;62753;40.394;-80.022;2024-02-23T02:54:55;83;68;
74333;PMS5003;62753;40.394;-80.022;2024-02-23T02:57:20;73;64;
74333;PMS5003;62753;40.394;-80.022;2024-02-23T02:59:46;80;72;
74333;PMS5003;62753;40.394;-80.022;2024-02-23T03:02:11;77;68;
74333;PMS5003;62753;40.394;-80.022;2024-02-23T03:04:37;79;70;
74333;PMS5003;62753;40.394;-80.022;2024-02-23T03:07:02;77;69;
74333;PMS5003;62753;40.394;-80.022;2024-02-23T03:09:30;83;73;
74333;PMS5003;62753;40.394;-80.022;2024-02-23T03:11:55;79;69;
74333;PMS5003;62753;40.394;-80.022;2024-02-23T03:14:18;73;65;
74333;PMS5003;62753;40.394;-80.022;2024-02-23T03:16:44;78;70;
74333;PMS5003;62753;40.394;-80.022;2024-02-23T03:19:10;81;70;
74333;PMS5003;62753;40.394;-80.022;2024-02-23T03:21:35;83;74;
74333;PMS5003;62753;40.394;-80.022;2024-02-23T03:24:01;79;71;
74333;PMS5003;62753;40.394;-80.022;2024-02-23T03:26:26;85;76;
74333;PMS5003;62753;40.394;-80.022;2024-02-23T03:28:52;85;77;
74333;PMS5003;62753;40.394;-80.022;2024-02-23T03:31:20;78;66;
74333;PMS5003;62753;40.394;-80.022;2024-02-23T03:33:43;82;68;
74333;PMS5003;62753;40.394;-80.022;2024-02-23T03:36:09;84;73;
74333;PMS5003;62753;40.394;-80.022;2024-02-23T03:38:33;81;73;
74333;PMS5003;62753;40.394;-80.022;2024-02-23T03:40:59;75;67;
74333;PMS5003;62753;40.394;-80.022;2024-02-23T03:43:25;85;74;
74333;PMS5003;62753;40.394;-80.022;2024-02-23T03:45:50;84;77;
74333;PMS5003;62753;40.394;-80.022;2024-02-23T03:48:16;78;67;
74333;PMS5003;62753;40.394;-80.022;2024-02-23T03:50:42;83;74;
74333;PMS5003;62753;40.394;-80.022;2024-02-23T03:53:07;90;81;
74333;PMS5003;62753;40.394;-80.022;2024-02-23T03:55:33;85;74;
74333;PMS5003;62753;40.394;-80.022;2024-02-23T03:57:58;85;76;
74333;PMS5003;62753;40.394;-80.022;2024-02-23T04:00:24;81;75;
74333;PMS5003;62753;40.394;-80.022;2024-02-23T04:02:51;89;77;
74333;PMS5003;62753;40.394;-80.022;2024-02-23T04:05:15;93;83;
74333;PMS5003;62753;40.394;-80.022;2024-02-23T04:07:40;75;68;
74333;PMS5003;62753;40.394;-80.022;2024-02-23T04:10:05;79;68;
74333;PMS5003;62753;40.394;-80.022;2024-02-23T04:12:31;79;69;
74333;PMS5003;62753;40.394;-80.022;2024-02-23T04:14:56;80;68;
74333;PMS5003;62753;40.394;-80.022;2024-02-23T04:17:22;77;66;
74333;PMS5003;62753;40.394;-80.022;2024-02-23T04:19:46;80;66;
74333;PMS5003;62753;40.394;-80.022;2024-02-23T04:22:15;71;67;
74333;PMS5003;62753;40.394;-80.022;2024-02-23T04:24:38;72;62;
74333;PMS5003;62753;40.394;-80.022;2024-02-23T04:27:03;77;66;
74333;PMS5003;62753;40.394;-80.022;2024-02-23T04:29:28;77;67;
74333;PMS5003;62753;40.394;-80.022;2024-02-23T04:31:54;79;67;
74333;PMS5003;62753;40.394;-80.022;2024-02-23T04:34:19;76;67;
74333;PMS5003;62753;40.394;-80.022;2024-02-23T04:36:46;81;68;
74333;PMS5003;62753;40.394;-80.022;2024-02-23T04:39:10;74;66;
74333;PMS5003;62753;40.394;-80.022;2024-02-23T04:41:35;72;62;
74333;PMS5003;62753;40.394;-80.022;2024-02-23T04:44:00;73;67;
74333;PMS5003;62753;40.394;-80.022;2024-02-23T04:46:27;78;67;
74333;PMS5003;62753;40.394;-80.022;2024-02-23T04:48:51;74;68;
74333;PMS5003;62753;40.394;-80.022;2024-02-23T04:51:17;72;66;
74333;PMS5003;62753;40.394;-80.022;2024-02-23T04:53:42;69;67;
74333;PMS5003;62753;40.394;-80.022;2024-02-23T04:56:09;71;64;
74333;PMS5003;62753;40.394;-80.022;2024-02-23T04:58:33;69;60;
74333;PMS5003;62753;40.394;-80.022;2024-02-23T05:00:59;85;77;
74333;PMS5003;62753;40.394;-80.022;2024-02-23T05:03:23;72;64;
74333;PMS5003;62753;40.394;-80.022;2024-02-23T05:05:49;75;68;
74333;PMS5003;62753;40.394;-80.022;2024-02-23T05:08:14;68;63;
74333;PMS5003;62753;40.394;-80.022;2024-02-23T05:10:39;85;72;
74333;PMS5003;62753;40.394;-80.022;2024-02-23T05:13:05;77;68;
74333;PMS5003;62753;40.394;-80.022;2024-02-23T05:15:30;71;61;
74333;PMS5003;62753;40.394;-80.022;2024-02-23T05:17:56;76;68;
74333;PMS5003;62753;40.394;-80.022;2024-02-23T05:20:21;74;66;
74333;PMS5003;62753;40.394;-80.022;2024-02-23T05:22:47;66;60;
74333;PMS5003;62753;40.394;-80.022;2024-02-23T05:25:13;63;54;
74333;PMS5003;62753;40.394;-80.022;2024-02-23T05:27:38;70;63;
74333;PMS5003;62753;40.394;-80.022;2024-02-23T05:30:07;63;55;
74333;PMS5003;62753;40.394;-80.022;2024-02-23T05:32:31;70;61;
74333;PMS5003;62753;40.394;-80.022;2024-02-23T05:34:57;69;59;
74333;PMS5003;62753;40.394;-80.022;2024-02-23T05:37:20;74;69;
74333;PMS5003;62753;40.394;-80.022;2024-02-23T05:39:48;70;58;
74333;PMS5003;62753;40.394;-80.022;2024-02-23T05:42:11;72;65;
74333;PMS5003;62753;40.394;-80.022;2024-02-23T05:44:37;75;67;
74333;PMS5003;62753;40.394;-80.022;2024-02-23T05:47:01;68;61;
74333;PMS5003;62753;40.394;-80.022;2024-02-23T05:49:27;66;57;
74333;PMS5003;62753;40.394;-80.022;2024-02-23T05:51:53;65;58;
74333;PMS5003;62753;40.394;-80.022;2024-02-23T05:54:19;71;61;
74333;PMS5003;62753;40.394;-80.022;2024-02-23T05:56:45;69;57;
74333;PMS5003;62753;40.394;-80.022;2024-02-23T05:59:09;63;53;
74333;PMS5003;62753;40.394;-80.022;2024-02-23T06:01:34;58;52;
74333;PMS5003;62753;40.394;-80.022;2024-02-23T06:04:00;71;62;
74333;PMS5003;62753;40.394;-80.022;2024-02-23T06:06:28;58;55;
74333;PMS5003;62753;40.394;-80.022;2024-02-23T06:08:50;61;53;
74333;PMS5003;62753;40.394;-80.022;2024-02-23T06:11:15;57;48;
74333;PMS5003;62753;40.394;-80.022;2024-02-23T06:13:40;58;51;
74333;PMS5003;62753;40.394;-80.022;2024-02-23T06:16:09;60;55;
74333;PMS5003;62753;40.394;-80.022;2024-02-23T06:18:32;59;52;
74333;PMS5003;62753;40.394;-80.022;2024-02-23T06:20:57;61;56;
74333;PMS5003;62753;40.394;-80.022;2024-02-23T06:23:23;75;59;
74333;PMS5003;62753;40.394;-80.022;2024-02-23T06:25:48;57;50;
74333;PMS5003;62753;40.394;-80.022;2024-02-23T06:28:14;60;54;
74333;PMS5003;62753;40.394;-80.022;2024-02-23T06:30:40;61;56;
74333;PMS5003;62753;40.394;-80.022;2024-02-23T06:33:06;66;58;
74333;PMS5003;62753;40.394;-80.022;2024-02-23T06:35:31;66;58;
74333;PMS5003;62753;40.394;-80.022;2024-02-23T06:37:56;52;48;
74333;PMS5003;62753;40.394;-80.022;2024-02-23T06:40:22;65;54;
74333;PMS5003;62753;40.394;-80.022;2024-02-23T06:42:50;63;58;
74333;PMS5003;62753;40.394;-80.022;2024-02-23T06:45:15;62;52;
74333;PMS5003;62753;40.394;-80.022;2024-02-23T06:47:40;59;52;
74333;PMS5003;62753;40.394;-80.022;2024-02-23T06:50:06;60;54;
74333;PMS5003;62753;40.394;-80.022;2024-02-23T06:52:30;66;56;
74333;PMS5003;62753;40.394;-80.022;2024-02-23T06:54:55;63;58;
74333;PMS5003;62753;40.394;-80.022;2024-02-23T06:57:20;60;52;
74333;PMS5003;62753;40.394;-80.022;2024-02-23T06:59:46;66;56;
74333;PMS5003;62753;40.394;-80.022;2024-02-23T07:02:12;57;51;
74333;PMS5003;62753;40.394;-80.022;2024-02-23T07:04:38;54;48;
74333;PMS5003;62753;40.394;-80.022;2024-02-23T07:07:03;63;53;
74333;PMS5003;62753;40.394;-80.022;2024-02-23T07:09:28;63;55;
74333;PMS5003;62753;40.394;-80.022;2024-02-23T07:11:54;59;50;
74333;PMS5003;62753;40.394;-80.022;2024-02-23T07:14:21;59;52;
74333;PMS5003;62753;40.394;-80.022;2024-02-23T07:16:45;63;56;
74333;PMS5003;62753;40.394;-80.022;2024-02-23T07:19:12;71;62;
74333;PMS5003;62753;40.394;-80.022;2024-02-23T07:21:37;59;51;
74333;PMS5003;62753;40.394;-80.022;2024-02-23T07:24:03;50;49;
74333;PMS5003;62753;40.394;-80.022;2024-02-23T07:26:28;59;56;
74333;PMS5003;62753;40.394;-80.022;2024-02-23T07:28:52;61;51;
74333;PMS5003;62753;40.394;-80.022;2024-02-23T07:31:18;62;56;
74333;PMS5003;62753;40.394;-80.022;2024-02-23T07:33:43;51;49;
74333;PMS5003;62753;40.394;-80.022;2024-02-23T07:36:13;67;57;
74333;PMS5003;62753;40.394;-80.022;2024-02-23T07:38:34;74;63;
74333;PMS5003;62753;40.394;-80.022;2024-02-23T07:41:00;66;53;
74333;PMS5003;62753;40.394;-80.022;2024-02-23T07:43:26;51;45;
74333;PMS5003;62753;40.394;-80.022;2024-02-23T07:45:50;64;60;
74333;PMS5003;62753;40.394;-80.022;2024-02-23T07:48:15;68;60;
74333;PMS5003;62753;40.394;-80.022;2024-02-23T07:50:43;59;56;
74333;PMS5003;62753;40.394;-80.022;2024-02-23T07:53:06;57;52;
74333;PMS5003;62753;40.394;-80.022;2024-02-23T07:55:31;63;55;
74333;PMS5003;62753;40.394;-80.022;2024-02-23T07:57:57;58;51;
74333;PMS5003;62753;40.394;-80.022;2024-02-23T08:00:23;58;50;
74333;PMS5003;62753;40.394;-80.022;2024-02-23T08:02:47;54;48;
74333;PMS5003;62753;40.394;-80.022;2024-02-23T08:05:13;56;48;
74333;PMS5003;62753;40.394;-80.022;2024-02-23T08:07:38;58;52;
74333;PMS5003;62753;40.394;-80.022;2024-02-23T08:10:04;49;44;
74333;PMS5003;62753;40.394;-80.022;2024-02-23T08:12:29;62;48;
74333;PMS5003;62753;40.394;-80.022;2024-02-23T08:14:55;58;50;
74333;PMS5003;62753;40.394;-80.022;2024-02-23T08:17:21;57;52;
74333;PMS5003;62753;40.394;-80.022;2024-02-23T08:19:47;52;48;
74333;PMS5003;62753;40.394;-80.022;2024-02-23T08:22:11;58;50;
74333;PMS5003;62753;40.394;-80.022;2024-02-23T08:24:37;57;51;
74333;PMS5003;62753;40.394;-80.022;2024-02-23T08:27:04;54;45;
74333;PMS5003;62753;40.394;-80.022;2024-02-23T08:29:28;49;46;
74333;PMS5003;62753;40.394;-80.022;2024-02-23T08:31:53;62;53;
74333;PMS5003;62753;40.394;-80.022;2024-02-23T08:34:19;59;52;
74333;PMS5003;62753;40.394;-80.022;2024-02-23T08:36:44;57;46;
74333;PMS5003;62753;40.394;-80.022;2024-02-23T08:39:09;62;53;
74333;PMS5003;62753;40.394;-80.022;2024-02-23T08:41:35;63;56;
74333;PMS5003;62753;40.394;-80.022;2024-02-23T08:44:02;56;48;
74333;PMS5003;62753;40.394;-80.022;2024-02-23T08:46:26;51;47;
74333;PMS5003;62753;40.394;-80.022;2024-02-23T08:48:52;58;49;
74333;PMS5003;62753;40.394;-80.022;2024-02-23T08:51:17;55;47;
74333;PMS5003;62753;40.394;-80.022;2024-02-23T08:53:43;55;49;
74333;PMS5003;62753;40.394;-80.022;2024-02-23T08:56:11;51;46;
74333;PMS5003;62753;40.394;-80.022;2024-02-23T08:58:34;50;44;
74333;PMS5003;62753;40.394;-80.022;2024-02-23T09:01:00;43;40;
74333;PMS5003;62753;40.394;-80.022;2024-02-23T09:03:25;56;49;
74333;PMS5003;62753;40.394;-80.022;2024-02-23T09:05:52;60;55;
74333;PMS5003;62753;40.394;-80.022;2024-02-23T09:08:15;63;53;
74333;PMS5003;62753;40.394;-80.022;2024-02-23T09:10:40;63;57;
74333;PMS5003;62753;40.394;-80.022;2024-02-23T09:13:07;55;49;
74333;PMS5003;62753;40.394;-80.022;2024-02-23T09:15:31;56;47;
74333;PMS5003;62753;40.394;-80.022;2024-02-23T09:17:57;61;56;
74333;PMS5003;62753;40.394;-80.022;2024-02-23T09:20:22;47;43;
74333;PMS5003;62753;40.394;-80.022;2024-02-23T09:22:48;53;50;
74333;PMS5003;62753;40.394;-80.022;2024-02-23T09:25:14;70;55;
74333;PMS5003;62753;40.394;-80.022;2024-02-23T09:27:39;58;52;
74333;PMS5003;62753;40.394;-80.022;2024-02-23T09:30:05;61;51;
74333;PMS5003;62753;40.394;-80.022;2024-02-23T09:32:30;59;51;
74333;PMS5003;62753;40.394;-80.022;2024-02-23T09:34:56;53;48;
74333;PMS5003;62753;40.394;-80.022;2024-02-23T09:37:21;62;56;
74333;PMS5003;62753;40.394;-80.022;2024-02-23T09:39:47;65;57;
74333;PMS5003;62753;40.394;-80.022;2024-02-23T09:42:13;59;52;
74333;PMS5003;62753;40.394;-80.022;2024-02-23T09:44:38;63;59;
74333;PMS5003;62753;40.394;-80.022;2024-02-23T09:47:07;65;54;
74333;PMS5003;62753;40.394;-80.022;2024-02-23T09:49:29;56;48;
74333;PMS5003;62753;40.394;-80.022;2024-02-23T09:51:55;54;46;
74333;PMS5003;62753;40.394;-80.022;2024-02-23T09:54:20;59;54;
74333;PMS5003;62753;40.394;-80.022;2024-02-23T09:56:47;54;51;
74333;PMS5003;62753;40.394;-80.022;2024-02-23T09:59:15;69;57;
74333;PMS5003;62753;40.394;-80.022;2024-02-23T10:01:37;56;49;
74333;PMS5003;62753;40.394;-80.022;2024-02-23T10:04:04;56;48;
74333;PMS5003;62753;40.394;-80.022;2024-02-23T10:06:27;53;45;
74333;PMS5003;62753;40.394;-80.022;2024-02-23T10:08:53;52;48;
74333;PMS5003;62753;40.394;-80.022;2024-02-23T10:11:19;51;45;
74333;PMS5003;62753;40.394;-80.022;2024-02-23T10:13:47;53;46;
74333;PMS5003;62753;40.394;-80.022;2024-02-23T10:16:10;52;48;
74333;PMS5003;62753;40.394;-80.022;2024-02-23T10:18:37;50;41;
74333;PMS5003;62753;40.394;-80.022;2024-02-23T10:21:01;55;51;
74333;PMS5003;62753;40.394;-80.022;2024-02-23T10:23:26;59;49;
74333;PMS5003;62753;40.394;-80.022;2024-02-23T10:25:53;53;42;
74333;PMS5003;62753;40.394;-80.022;2024-02-23T10:28:18;44;41;
74333;PMS5003;62753;40.394;-80.022;2024-02-23T10:30:43;51;43;
74333;PMS5003;62753;40.394;-80.022;2024-02-23T10:33:09;49;42;
74333;PMS5003;62753;40.394;-80.022;2024-02-23T10:35:34;48;41;
74333;PMS5003;62753;40.394;-80.022;2024-02-23T10:38:00;52;44;
74333;PMS5003;62753;40.394;-80.022;2024-02-23T10:40:25;51;44;
74333;PMS5003;62753;40.394;-80.022;2024-02-23T10:42:51;51;45;
74333;PMS5003;62753;40.394;-80.022;2024-02-23T10:45:16;49;42;
74333;PMS5003;62753;40.394;-80.022;2024-02-23T10:47:42;51;43;
74333;PMS5003;62753;40.394;-80.022;2024-02-23T10:50:07;51;42;
74333;PMS5003;62753;40.394;-80.022;2024-02-23T10:52:32;42;38;
74333;PMS5003;62753;40.394;-80.022;2024-02-23T10:54:57;51;45;
74333;PMS5003;62753;40.394;-80.022;2024-02-23T10:57:22;43;41;
74333;PMS5003;62753;40.394;-80.022;2024-02-23T10:59:49;43;39;
74333;PMS5003;62753;40.394;-80.022;2024-02-23T11:02:14;47;46;
74333;PMS5003;62753;40.394;-80.022;2024-02-23T11:04:39;51;43;
74333;PMS5003;62753;40.394;-80.022;2024-02-23T11:07:12;57;52;
74333;PMS5003;62753;40.394;-80.022;2024-02-23T11:09:31;54;50;
74333;PMS5003;62753;40.394;-80.022;2024-02-23T11:11:57;53;45;
74333;PMS5003;62753;40.394;-80.022;2024-02-23T11:14:29;57;50;
74333;PMS5003;62753;40.394;-80.022;2024-02-23T11:16:47;49;46;
74333;PMS5003;62753;40.394;-80.022;2024-02-23T11:19:13;56;50;
74333;PMS5003;62753;40.394;-80.022;2024-02-23T11:21:39;55;46;
74333;PMS5003;62753;40.394;-80.022;2024-02-23T11:24:05;49;43;
74333;PMS5003;62753;40.394;-80.022;2024-02-23T11:26:31;50;41;
74333;PMS5003;62753;40.394;-80.022;2024-02-23T11:28:55;66;51;
74333;PMS5003;62753;40.394;-80.022;2024-02-23T11:31:22;48;44;
74333;PMS5003;62753;40.394;-80.022;2024-02-23T11:33:49;57;54;
74333;PMS5003;62753;40.394;-80.022;2024-02-23T11:36:12;53;46;
74333;PMS5003;62753;40.394;-80.022;2024-02-23T11:38:37;54;45;
74333;PMS5003;62753;40.394;-80.022;2024-02-23T11:41:03;65;54;
74333;PMS5003;62753;40.394;-80.022;2024-02-23T11:43:28;62;55;
74333;PMS5003;62753;40.394;-80.022;2024-02-23T11:45:53;62;51;
74333;PMS5003;62753;40.394;-80.022;2024-02-23T11:48:19;68;58;
74333;PMS5003;62753;40.394;-80.022;2024-02-23T11:50:44;65;57;
74333;PMS5003;62753;40.394;-80.022;2024-02-23T11:53:09;64;57;
74333;PMS5003;62753;40.394;-80.022;2024-02-23T11:55:36;55;48;
74333;PMS5003;62753;40.394;-80.022;2024-02-23T11:58:00;65;56;
74333;PMS5003;62753;40.394;-80.022;2024-02-23T12:00:26;68;59;
74333;PMS5003;62753;40.394;-80.022;2024-02-23T12:02:51;68;58;
74333;PMS5003;62753;40.394;-80.022;2024-02-23T12:05:18;70;58;
74333;PMS5003;62753;40.394;-80.022;2024-02-23T12:07:43;70;61;
74333;PMS5003;62753;40.394;-80.022;2024-02-23T12:10:08;62;57;
74333;PMS5003;62753;40.394;-80.022;2024-02-23T12:12:33;75;64;
74333;PMS5003;62753;40.394;-80.022;2024-02-23T12:15:00;65;56;
74333;PMS5003;62753;40.394;-80.022;2024-02-23T12:17:25;73;64;
74333;PMS5003;62753;40.394;-80.022;2024-02-23T12:19:50;73;62;
74333;PMS5003;62753;40.394;-80.022;2024-02-23T12:22:16;68;59;
74333;PMS5003;62753;40.394;-80.022;2024-02-23T12:24:41;75;64;
74333;PMS5003;62753;40.394;-80.022;2024-02-23T12:27:06;78;65;
74333;PMS5003;62753;40.394;-80.022;2024-02-23T12:29:32;71;62;
74333;PMS5003;62753;40.394;-80.022;2024-02-23T12:32:03;74;63;
74333;PMS5003;62753;40.394;-80.022;2024-02-23T12:34:25;76;68;
74333;PMS5003;62753;40.394;-80.022;2024-02-23T12:36:50;69;62;
74333;PMS5003;62753;40.394;-80.022;2024-02-23T12:39:14;69;63;
74333;PMS5003;62753;40.394;-80.022;2024-02-23T12:41:39;74;61;
74333;PMS5003;62753;40.394;-80.022;2024-02-23T12:44:04;74;65;
74333;PMS5003;62753;40.394;-80.022;2024-02-23T12:46:30;73;59;
74333;PMS5003;62753;40.394;-80.022;2024-02-23T12:48:56;75;61;
74333;PMS5003;62753;40.394;-80.022;2024-02-23T12:51:24;73;58;
74333;PMS5003;62753;40.394;-80.022;2024-02-23T12:53:46;75;65;
74333;PMS5003;62753;40.394;-80.022;2024-02-23T12:56:13;69;59;
74333;PMS5003;62753;40.394;-80.022;2024-02-23T12:58:38;62;59;
74333;PMS5003;62753;40.394;-80.022;2024-02-23T13:01:03;76;72;
74333;PMS5003;62753;40.394;-80.022;2024-02-23T13:03:29;77;66;
74333;PMS5003;62753;40.394;-80.022;2024-02-23T13:05:54;84;68;
74333;PMS5003;62753;40.394;-80.022;2024-02-23T13:08:21;79;68;
74333;PMS5003;62753;40.394;-80.022;2024-02-23T13:10:45;79;67;
74333;PMS5003;62753;40.394;-80.022;2024-02-23T13:13:10;82;69;
74333;PMS5003;62753;40.394;-80.022;2024-02-23T13:15:36;77;66;
74333;PMS5003;62753;40.394;-80.022;2024-02-23T13:18:02;78;65;
74333;PMS5003;62753;40.394;-80.022;2024-02-23T13:20:26;72;58;
74333;PMS5003;62753;40.394;-80.022;2024-02-23T13:22:51;77;64;
74333;PMS5003;62753;40.394;-80.022;2024-02-23T13:25:17;61;56;
74333;PMS5003;62753;40.394;-80.022;2024-02-23T13:27:42;74;65;
74333;PMS5003;62753;40.394;-80.022;2024-02-23T13:30:10;72;60;
74333;PMS5003;62753;40.394;-80.022;2024-02-23T13:32:34;72;59;
74333;PMS5003;62753;40.394;-80.022;2024-02-23T13:34:59;68;59;
74333;PMS5003;62753;40.394;-80.022;2024-02-23T13:37:25;70;62;
74333;PMS5003;62753;40.394;-80.022;2024-02-23T13:39:52;68;58;
74333;PMS5003;62753;40.394;-80.022;2024-02-23T13:42:16;66;59;
74333;PMS5003;62753;40.394;-80.022;2024-02-23T13:44:43;66;56;
74333;PMS5003;62753;40.394;-80.022;2024-02-23T13:47:07;69;58;
74333;PMS5003;62753;40.394;-80.022;2024-02-23T13:49:32;61;55;
74333;PMS5003;62753;40.394;-80.022;2024-02-23T13:51:59;75;60;
74333;PMS5003;62753;40.394;-80.022;2024-02-23T13:54:23;67;59;
74333;PMS5003;62753;40.394;-80.022;2024-02-23T13:56:51;67;57;
74333;PMS5003;62753;40.394;-80.022;2024-02-23T13:59:14;68;55;
74333;PMS5003;62753;40.394;-80.022;2024-02-23T14:01:41;69;63;
74333;PMS5003;62753;40.394;-80.022;2024-02-23T14:04:06;59;56;
74333;PMS5003;62753;40.394;-80.022;2024-02-23T14:06:30;60;53;
74333;PMS5003;62753;40.394;-80.022;2024-02-23T14:08:56;69;57;
74333;PMS5003;62753;40.394;-80.022;2024-02-23T14:11:22;66;59;
74333;PMS5003;62753;40.394;-80.022;2024-02-23T14:13:49;54;49;
74333;PMS5003;62753;40.394;-80.022;2024-02-23T14:16:13;63;51;
74333;PMS5003;62753;40.394;-80.022;2024-02-23T14:18:39;60;52;
74333;PMS5003;62753;40.394;-80.022;2024-02-23T14:21:05;70;57;
74333;PMS5003;62753;40.394;-80.022;2024-02-23T14:23:31;59;50;
74333;PMS5003;62753;40.394;-80.022;2024-02-23T14:25:55;54;50;
74333;PMS5003;62753;40.394;-80.022;2024-02-23T14:28:20;56;50;
74333;PMS5003;62753;40.394;-80.022;2024-02-23T14:30:46;56;49;
74333;PMS5003;62753;40.394;-80.022;2024-02-23T14:33:11;63;54;
74333;PMS5003;62753;40.394;-80.022;2024-02-23T14:35:38;62;50;
74333;PMS5003;62753;40.394;-80.022;2024-02-23T14:38:04;56;48;
74333;PMS5003;62753;40.394;-80.022;2024-02-23T14:40:28;50;45;
74333;PMS5003;62753;40.394;-80.022;2024-02-23T14:42:54;50;47;
74333;PMS5003;62753;40.394;-80.022;2024-02-23T14:45:19;50;46;
74333;PMS5003;62753;40.394;-80.022;2024-02-23T14:47:45;46;41;
74333;PMS5003;62753;40.394;-80.022;2024-02-23T14:50:10;50;44;
74333;PMS5003;62753;40.394;-80.022;2024-02-23T14:52:36;56;43;
74333;PMS5003;62753;40.394;-80.022;2024-02-23T14:55:02;50;43;
74333;PMS5003;62753;40.394;-80.022;2024-02-23T14:57:27;47;42;
74333;PMS5003;62753;40.394;-80.022;2024-02-23T14:59:52;48;40;
74333;PMS5003;62753;40.394;-80.022;2024-02-23T15:02:19;44;37;
74333;PMS5003;62753;40.394;-80.022;2024-02-23T15:04:43;38;31;
74333;PMS5003;62753;40.394;-80.022;2024-02-23T15:07:08;41;34;
74333;PMS5003;62753;40.394;-80.022;2024-02-23T15:09:34;36;30;
74333;PMS5003;62753;40.394;-80.022;2024-02-23T15:11:59;37;33;
74333;PMS5003;62753;40.394;-80.022;2024-02-23T15:14:24;36;30;
74333;PMS5003;62753;40.394;-80.022;2024-02-23T15:16:50;33;30;
74333;PMS5003;62753;40.394;-80.022;2024-02-23T15:19:18;36;29;
74333;PMS5003;62753;40.394;-80.022;2024-02-23T15:21:42;33;31;
74333;PMS5003;62753;40.394;-80.022;2024-02-23T15:24:06;40;32;
74333;PMS5003;62753;40.394;-80.022;2024-02-23T15:26:32;34;27;
74333;PMS5003;62753;40.394;-80.022;2024-02-23T15:28:59;33;31;
74333;PMS5003;62753;40.394;-80.022;2024-02-23T15:31:23;38;34;
74333;PMS5003;62753;40.394;-80.022;2024-02-23T15:33:49;40;33;